createdAt,value
2023-01-20T00:02:23.637Z,2.30
2023-01-20T00:05:09.117Z,2.30
2023-01-20T00:07:54.565Z,2.30
2023-01-20T00:10:40.055Z,2.30
2023-01-20T00:13:26.281Z,2.30
2023-01-20T00:16:12.391Z,2.30
2023-01-20T00:18:58.224Z,2.30
2023-01-20T00:21:43.737Z,2.30
2023-01-20T00:24:29.140Z,2.20
2023-01-20T00:27:16.161Z,2.20
2023-01-20T00:30:01.925Z,2.20
2023-01-20T00:32:47.235Z,2.20
2023-01-20T00:35:32.712Z,2.20
2023-01-20T00:38:18.328Z,2.20
2023-01-20T00:41:03.856Z,2.20
2023-01-20T00:43:49.402Z,2.10
2023-01-20T00:46:34.802Z,2.20
2023-01-20T00:49:20.412Z,2.20
2023-01-20T00:52:05.917Z,2.10
2023-01-20T00:54:51.517Z,2.20
2023-01-20T00:57:37.304Z,2.20
2023-01-20T01:00:22.783Z,2.10
2023-01-20T01:03:10.347Z,2.10
2023-01-20T01:06:06.602Z,2.10
2023-01-20T01:08:52.999Z,2.10
2023-01-20T01:11:38.194Z,2.10
2023-01-20T01:14:23.589Z,1.60
2023-01-20T01:17:09.078Z,2.20
2023-01-20T01:19:54.535Z,2.20
2023-01-20T01:22:40.326Z,2.20
2023-01-20T01:25:25.529Z,2.30
2023-01-20T01:28:11.032Z,2.30
2023-01-20T01:31:00.795Z,2.20
2023-01-20T01:33:46.406Z,2.20
2023-01-20T01:36:31.763Z,1.50
2023-01-20T01:39:17.203Z,2.20
2023-01-20T01:42:02.555Z,2.20
2023-01-20T01:45:10.104Z,2.20
2023-01-20T01:48:09.322Z,2.20
2023-01-20T01:51:03.078Z,2.20
2023-01-20T01:53:54.833Z,2.20
2023-01-20T01:56:43.454Z,2.20
2023-01-20T01:59:28.743Z,2.20
2023-01-20T02:02:13.891Z,2.20
2023-01-20T02:05:03.252Z,2.10
2023-01-20T02:07:49.190Z,2.10
2023-01-20T02:10:34.898Z,2.10
2023-01-20T02:13:20.636Z,2.10
2023-01-20T02:16:29.113Z,2.10
2023-01-20T02:19:39.743Z,2.10
2023-01-20T02:22:47.991Z,2.00
2023-01-20T02:26:12.435Z,2.10
2023-01-20T02:29:33.320Z,2.40
2023-01-20T02:32:30.519Z,2.10
2023-01-20T02:35:38.979Z,2.10
2023-01-20T02:38:44.482Z,2.10
2023-01-20T02:41:47.744Z,2.00
2023-01-20T02:45:02.473Z,2.10
2023-01-20T02:48:07.987Z,2.10
2023-01-20T02:51:02.444Z,2.10
2023-01-20T02:53:56.133Z,2.10
2023-01-20T02:56:42.903Z,2.10
2023-01-20T02:59:33.456Z,2.00
2023-01-20T03:02:22.782Z,2.00
2023-01-20T03:05:14.584Z,2.00
2023-01-20T03:08:04.065Z,2.00
2023-01-20T03:10:51.383Z,2.10
2023-01-20T03:14:05.030Z,2.10
2023-01-20T03:16:50.832Z,2.10
2023-01-20T03:19:36.682Z,2.10
2023-01-20T03:22:22.639Z,2.10
2023-01-20T03:25:10.264Z,2.10
2023-01-20T03:27:55.880Z,2.10
2023-01-20T03:30:41.632Z,2.10
2023-01-20T03:33:27.531Z,2.10
2023-01-20T03:36:14.549Z,2.10
2023-01-20T03:39:00.390Z,2.00
2023-01-20T03:41:58.122Z,2.00
2023-01-20T03:45:04.677Z,2.00
2023-01-20T03:48:27.072Z,2.00
2023-01-20T03:51:33.510Z,2.00
2023-01-20T03:54:24.344Z,2.00
2023-01-20T03:57:15.022Z,1.90
2023-01-20T04:00:01.999Z,1.90
2023-01-20T04:02:59.329Z,1.90
2023-01-20T04:05:46.638Z,1.90
2023-01-20T04:08:36.447Z,1.90
2023-01-20T04:11:22.172Z,1.90
2023-01-20T04:14:09.462Z,1.90
2023-01-20T04:16:59.042Z,1.90
2023-01-20T04:19:44.487Z,2.00
2023-01-20T04:22:57.221Z,1.90
2023-01-20T04:25:43.239Z,2.00
2023-01-20T04:28:29.568Z,2.00
2023-01-20T04:31:29.240Z,2.00
2023-01-20T04:34:16.458Z,2.20
2023-01-20T04:37:01.656Z,2.00
2023-01-20T04:39:47.041Z,1.90
2023-01-20T04:42:32.613Z,1.90
2023-01-20T04:45:18.268Z,1.90
2023-01-20T04:48:07.933Z,2.00
2023-01-20T04:50:53.226Z,1.80
2023-01-20T04:53:38.800Z,1.80
2023-01-20T04:56:24.398Z,1.80
2023-01-20T04:59:09.842Z,1.70
2023-01-20T05:01:55.432Z,1.70
2023-01-20T05:04:40.990Z,1.60
2023-01-20T05:07:26.399Z,1.60
2023-01-20T05:10:13.261Z,1.60
2023-01-20T05:12:59.880Z,1.60
2023-01-20T05:15:45.584Z,1.60
2023-01-20T05:18:31.238Z,1.60
2023-01-20T05:21:16.698Z,1.60
2023-01-20T05:24:02.301Z,1.60
2023-01-20T05:26:47.803Z,1.60
2023-01-20T05:29:33.344Z,1.40
2023-01-20T05:32:18.789Z,1.60
2023-01-20T05:35:04.931Z,1.50
2023-01-20T05:37:54.448Z,1.50
2023-01-20T05:40:39.935Z,1.40
2023-01-20T05:43:25.441Z,1.40
2023-01-20T05:46:10.967Z,1.30
2023-01-20T05:48:56.342Z,1.20
2023-01-20T05:51:41.855Z,1.20
2023-01-20T05:54:27.495Z,1.20
2023-01-20T05:57:18.011Z,1.10
2023-01-20T06:00:04.642Z,1.10
2023-01-20T06:02:50.452Z,1.10
2023-01-20T06:05:35.900Z,1.20
2023-01-20T06:08:21.220Z,1.10
2023-01-20T06:11:06.801Z,1.10
2023-01-20T06:13:52.111Z,1.00
2023-01-20T06:16:37.587Z,0.90
2023-01-20T06:19:22.958Z,0.90
2023-01-20T06:22:13.964Z,0.90
2023-01-20T06:24:59.743Z,0.80
2023-01-20T06:27:45.197Z,0.90
2023-01-20T06:30:30.691Z,0.80
2023-01-20T06:33:16.388Z,0.70
2023-01-20T06:36:02.928Z,0.70
2023-01-20T06:38:50.874Z,0.60
2023-01-20T06:41:36.117Z,0.60
2023-01-20T06:44:21.614Z,0.60
2023-01-20T06:47:07.096Z,0.50
2023-01-20T06:49:52.517Z,0.50
2023-01-20T06:52:38.106Z,0.60
2023-01-20T06:55:23.660Z,0.50
2023-01-20T06:58:29.125Z,0.50
2023-01-20T07:01:26.240Z,0.50
2023-01-20T07:04:14.994Z,0.50
2023-01-20T07:07:00.893Z,0.40
2023-01-20T07:09:46.670Z,0.40
2023-01-20T07:12:32.130Z,0.40
2023-01-20T07:15:17.811Z,0.40
2023-01-20T07:18:03.389Z,0.40
2023-01-20T07:20:54.573Z,0.40
2023-01-20T07:23:40.297Z,0.40
2023-01-20T07:26:26.558Z,0.40
2023-01-20T07:29:11.870Z,0.40
2023-01-20T07:31:57.486Z,0.40
2023-01-20T07:34:42.964Z,0.50
2023-01-20T07:37:28.399Z,0.50
2023-01-20T07:40:14.163Z,0.50
2023-01-20T07:42:59.542Z,0.60
2023-01-20T07:45:45.206Z,0.70
2023-01-20T07:48:32.442Z,0.70
2023-01-20T07:51:18.139Z,0.70
2023-01-20T07:54:04.464Z,0.80
2023-01-20T07:56:50.110Z,0.80
2023-01-20T07:59:35.537Z,0.90
2023-01-20T08:02:21.049Z,1.00
2023-01-20T08:05:07.120Z,1.00
2023-01-20T08:07:52.785Z,1.00
2023-01-20T08:10:38.182Z,1.00
2023-01-20T08:13:23.604Z,1.10
2023-01-20T08:16:11.524Z,1.00
2023-01-20T08:18:57.284Z,1.10
2023-01-20T08:21:42.692Z,1.10
2023-01-20T08:24:28.222Z,1.20
2023-01-20T08:27:13.722Z,1.20
2023-01-20T08:29:59.337Z,1.20
2023-01-20T08:32:44.786Z,1.30
2023-01-20T08:35:30.553Z,1.40
2023-01-20T08:38:15.996Z,1.40
2023-01-20T08:41:01.834Z,1.50
2023-01-20T08:43:48.597Z,1.60
2023-01-20T08:46:34.730Z,1.70
2023-01-20T08:49:22.703Z,1.80
2023-01-20T08:52:08.163Z,1.80
2023-01-20T08:54:54.352Z,1.80
2023-01-20T08:57:39.504Z,1.80
2023-01-20T09:00:25.150Z,1.90
2023-01-20T09:03:12.196Z,1.90
2023-01-20T09:06:02.102Z,2.00
2023-01-20T09:08:48.968Z,2.00
2023-01-20T09:11:34.429Z,2.10
2023-01-20T09:14:21.699Z,2.10
2023-01-20T09:17:07.185Z,2.10
2023-01-20T09:19:52.806Z,2.10
2023-01-20T09:22:40.372Z,2.20
2023-01-20T09:25:26.182Z,2.30
2023-01-20T09:28:12.288Z,3.10
2023-01-20T09:31:09.224Z,2.40
2023-01-20T09:33:55.797Z,2.40
2023-01-20T09:36:40.954Z,2.40
2023-01-20T09:39:45.132Z,2.50
2023-01-20T09:43:22.624Z,2.60
2023-01-20T09:46:15.460Z,2.60
2023-01-20T09:49:34.434Z,2.80
2023-01-20T09:52:57.211Z,2.80
2023-01-20T09:55:56.296Z,2.90
2023-01-20T09:58:50.416Z,3.00
2023-01-20T10:01:49.684Z,3.00
2023-01-20T10:04:51.625Z,3.00
2023-01-20T10:07:44.244Z,3.10
2023-01-20T10:10:39.922Z,3.10
2023-01-20T10:13:31.473Z,3.20
2023-01-20T10:16:47.386Z,3.30
2023-01-20T10:19:49.060Z,3.40
2023-01-20T10:22:56.194Z,3.40
2023-01-20T10:25:50.078Z,3.50
2023-01-20T10:28:43.405Z,3.50
2023-01-20T10:31:38.649Z,3.50
2023-01-20T10:34:39.181Z,3.60
2023-01-20T10:37:25.794Z,3.60
2023-01-20T10:40:36.445Z,3.60
2023-01-20T10:43:22.256Z,3.70
2023-01-20T10:46:26.641Z,3.70
2023-01-20T10:49:12.020Z,3.80
2023-01-20T10:52:15.298Z,3.90
2023-01-20T10:55:28.189Z,3.80
2023-01-20T10:58:27.627Z,3.90
2023-01-20T11:01:17.174Z,4.00
2023-01-20T11:04:03.000Z,4.10
2023-01-20T11:07:00.133Z,4.20
2023-01-20T11:09:48.724Z,4.30
2023-01-20T11:12:39.830Z,4.40
2023-01-20T11:15:35.435Z,4.50
2023-01-20T11:18:26.547Z,4.50
2023-01-20T11:21:13.380Z,4.50
2023-01-20T11:23:59.949Z,4.60
2023-01-20T11:26:45.634Z,4.50
2023-01-20T11:29:35.344Z,4.50
2023-01-20T11:32:28.293Z,4.60
2023-01-20T11:35:20.198Z,4.80
2023-01-20T11:38:40.826Z,4.90
2023-01-20T11:41:28.834Z,5.00
2023-01-20T11:44:20.336Z,5.00
2023-01-20T11:47:30.196Z,5.00
2023-01-20T11:50:25.221Z,5.20
2023-01-20T11:53:17.980Z,5.30
2023-01-20T11:56:14.800Z,5.30
2023-01-20T11:59:01.939Z,5.40
2023-01-20T12:01:57.747Z,5.40
2023-01-20T12:05:08.956Z,5.60
2023-01-20T12:07:56.183Z,6.70
2023-01-20T12:10:42.891Z,7.80
2023-01-20T12:13:32.310Z,8.20
2023-01-20T12:16:17.882Z,9.20
2023-01-20T12:19:13.059Z,11.20
2023-01-20T12:22:03.531Z,14.10
2023-01-20T12:25:07.373Z,16.70
2023-01-20T12:28:17.657Z,18.80
2023-01-20T12:31:06.314Z,20.50
2023-01-20T12:33:59.668Z,18.60
2023-01-20T12:37:03.345Z,14.50
2023-01-20T12:39:54.990Z,15.30
2023-01-20T12:43:12.427Z,17.50
2023-01-20T12:46:16.528Z,18.90
2023-01-20T12:49:27.503Z,19.50
2023-01-20T12:52:25.540Z,19.90
2023-01-20T12:55:17.042Z,19.50
2023-01-20T12:58:20.620Z,19.40
2023-01-20T13:01:12.238Z,19.20
2023-01-20T13:04:09.946Z,18.50
2023-01-20T13:07:23.498Z,18.60
2023-01-20T13:10:17.144Z,16.50
2023-01-20T13:13:17.090Z,14.20
2023-01-20T13:16:21.865Z,12.10
2023-01-20T13:19:30.197Z,10.80
2023-01-20T13:22:21.115Z,12.10
2023-01-20T13:25:13.775Z,14.00
2023-01-20T13:28:00.121Z,14.70
2023-01-20T13:30:50.957Z,15.00
2023-01-20T13:33:41.466Z,14.20
2023-01-20T13:36:26.891Z,12.50
2023-01-20T13:39:40.497Z,11.10
2023-01-20T13:42:46.622Z,10.30
2023-01-20T13:45:32.022Z,10.00
2023-01-20T13:48:23.557Z,10.40
2023-01-20T13:51:27.387Z,9.70
2023-01-20T13:54:25.521Z,9.50
2023-01-20T13:57:20.412Z,9.20
2023-01-20T14:00:12.401Z,8.80
2023-01-20T14:02:57.918Z,8.80
2023-01-20T14:05:43.399Z,8.70
2023-01-20T14:08:37.447Z,8.90
2023-01-20T14:11:25.122Z,8.80
2023-01-20T14:14:19.411Z,8.40
2023-01-20T14:17:15.087Z,7.60
2023-01-20T14:20:00.419Z,7.00
2023-01-20T14:22:45.988Z,6.80
2023-01-20T14:25:31.374Z,6.70
2023-01-20T14:28:20.175Z,6.70
2023-01-20T14:31:12.076Z,6.60
2023-01-20T14:34:01.853Z,6.20
2023-01-20T14:36:47.410Z,5.60
2023-01-20T14:39:33.293Z,5.50
2023-01-20T14:42:21.047Z,5.30
2023-01-20T14:45:21.794Z,5.30
2023-01-20T14:48:07.477Z,5.40
2023-01-20T14:50:53.976Z,5.40
2023-01-20T14:53:39.634Z,5.30
2023-01-20T14:56:25.219Z,5.20
2023-01-20T14:59:19.428Z,5.20
2023-01-20T15:02:14.732Z,5.30
2023-01-20T15:05:00.129Z,5.30
2023-01-20T15:07:46.509Z,5.20
2023-01-20T15:10:32.291Z,5.20
2023-01-20T15:13:26.819Z,5.20
2023-01-20T15:16:24.057Z,5.20
2023-01-20T15:19:16.343Z,5.10
2023-01-20T15:22:20.276Z,5.10
2023-01-20T15:25:13.283Z,5.10
2023-01-20T15:27:58.862Z,5.10
2023-01-20T15:30:44.365Z,5.00
2023-01-20T15:33:29.884Z,5.10
2023-01-20T15:36:29.881Z,4.80
2023-01-20T15:39:20.749Z,4.80
2023-01-20T15:42:09.541Z,4.80
2023-01-20T15:44:54.763Z,4.70
2023-01-20T15:47:40.642Z,4.60
2023-01-20T15:50:28.064Z,4.50
2023-01-20T15:53:13.616Z,4.50
2023-01-20T15:56:00.359Z,4.60
2023-01-20T15:58:46.615Z,4.60
2023-01-20T16:01:32.184Z,4.60
2023-01-20T16:04:17.976Z,4.60
2023-01-20T16:07:03.680Z,4.50
2023-01-20T16:09:49.447Z,4.50
2023-01-20T16:12:34.789Z,4.50
2023-01-20T16:15:20.452Z,4.40
2023-01-20T16:18:06.046Z,4.30
2023-01-20T16:20:51.742Z,4.30
2023-01-20T16:23:37.179Z,4.30
2023-01-20T16:26:25.750Z,4.20
2023-01-20T16:29:11.333Z,4.20
2023-01-20T16:31:56.725Z,4.20
2023-01-20T16:34:42.690Z,4.10
2023-01-20T16:37:28.253Z,4.00
2023-01-20T16:40:16.032Z,4.00
2023-01-20T16:43:01.637Z,3.90
2023-01-20T16:45:55.856Z,3.90
2023-01-20T16:48:42.016Z,3.70
2023-01-20T16:51:29.035Z,3.70
2023-01-20T16:54:15.043Z,3.60
2023-01-20T16:57:00.193Z,3.60
2023-01-20T16:59:46.792Z,3.60
2023-01-20T17:02:34.094Z,3.50
2023-01-20T17:05:22.459Z,3.40
2023-01-20T17:08:09.092Z,3.30
2023-01-20T17:10:54.207Z,3.20
2023-01-20T17:13:39.727Z,3.20
2023-01-20T17:16:26.230Z,3.10
2023-01-20T17:19:13.042Z,3.00
2023-01-20T17:21:58.408Z,2.90
2023-01-20T17:24:43.653Z,2.90
2023-01-20T17:27:29.175Z,2.80
2023-01-20T17:30:16.039Z,2.80
2023-01-20T17:33:01.953Z,2.80
2023-01-20T17:35:56.445Z,2.80
2023-01-20T17:38:42.283Z,2.80
2023-01-20T17:41:28.361Z,2.70
2023-01-20T17:44:13.678Z,2.70
2023-01-20T17:46:59.173Z,2.60
2023-01-20T17:49:45.029Z,2.60
2023-01-20T17:52:30.690Z,2.60
2023-01-20T17:55:16.649Z,2.50
2023-01-20T17:58:02.555Z,2.50
2023-01-20T18:00:48.839Z,2.40
2023-01-20T18:03:34.539Z,2.30
2023-01-20T18:06:21.713Z,2.30
2023-01-20T18:09:08.002Z,2.30
2023-01-20T18:11:54.076Z,2.30
2023-01-20T18:14:39.233Z,2.20
2023-01-20T18:17:25.096Z,2.20
2023-01-20T18:20:12.035Z,2.20
2023-01-20T18:22:57.719Z,2.20
2023-01-20T18:25:43.659Z,2.20
2023-01-20T18:28:29.203Z,2.20
2023-01-20T18:31:17.178Z,2.10
2023-01-20T18:34:05.983Z,2.10
2023-01-20T18:36:51.440Z,2.00
2023-01-20T18:39:37.283Z,1.90
2023-01-20T18:42:23.317Z,1.90
2023-01-20T18:45:09.256Z,2.00
2023-01-20T18:47:54.623Z,2.10
2023-01-20T18:50:40.277Z,2.00
2023-01-20T18:53:29.930Z,1.90
2023-01-20T18:56:15.995Z,1.90
2023-01-20T18:59:02.258Z,1.70
2023-01-20T19:01:48.313Z,1.60
2023-01-20T19:04:35.582Z,1.60
2023-01-20T19:07:21.103Z,1.50
2023-01-20T19:10:07.013Z,1.50
2023-01-20T19:12:52.652Z,1.50
2023-01-20T19:15:38.300Z,1.50
2023-01-20T19:18:24.334Z,1.40
2023-01-20T19:21:13.272Z,1.40
2023-01-20T19:24:01.407Z,1.40
2023-01-20T19:26:47.482Z,1.40
2023-01-20T19:29:33.051Z,1.40
2023-01-20T19:32:18.524Z,1.40
2023-01-20T19:35:04.223Z,1.30
2023-01-20T19:37:50.324Z,1.30
2023-01-20T19:40:35.747Z,1.20
2023-01-20T19:43:21.401Z,1.10
2023-01-20T19:46:09.464Z,1.10
2023-01-20T19:48:57.165Z,1.10
2023-01-20T19:51:42.695Z,1.00
2023-01-20T19:54:30.810Z,1.00
2023-01-20T19:57:16.052Z,1.00
2023-01-20T20:00:01.757Z,1.00
2023-01-20T20:02:57.030Z,1.00
2023-01-20T20:05:43.959Z,1.20
2023-01-20T20:08:29.653Z,1.30
2023-01-20T20:11:15.866Z,1.40
2023-01-20T20:14:03.286Z,1.50
2023-01-20T20:16:50.061Z,1.50
2023-01-20T20:19:35.615Z,1.50
2023-01-20T20:22:21.280Z,1.50
2023-01-20T20:25:08.856Z,1.50
2023-01-20T20:27:57.616Z,1.40
2023-01-20T20:30:43.200Z,1.40
2023-01-20T20:33:28.444Z,1.40
2023-01-20T20:36:14.968Z,1.40
2023-01-20T20:39:02.549Z,1.50
2023-01-20T20:41:48.247Z,1.50
2023-01-20T20:44:33.816Z,1.60
2023-01-20T20:47:20.240Z,1.50
2023-01-20T20:50:06.414Z,1.50
2023-01-20T20:52:52.591Z,1.50
2023-01-20T20:55:41.787Z,1.50
2023-01-20T20:58:27.345Z,1.50
2023-01-20T21:01:15.568Z,1.50
2023-01-20T21:04:02.062Z,1.50
2023-01-20T21:06:47.563Z,1.50
2023-01-20T21:09:33.225Z,1.60
2023-01-20T21:12:18.783Z,1.60
2023-01-20T21:15:04.698Z,1.50
2023-01-20T21:17:50.407Z,1.60
2023-01-20T21:20:35.902Z,1.60
2023-01-20T21:23:21.433Z,1.60
2023-01-20T21:26:11.583Z,1.60
2023-01-20T21:28:57.124Z,1.60
2023-01-20T21:31:42.998Z,1.50
2023-01-20T21:34:28.436Z,1.50
2023-01-20T21:37:13.926Z,1.50
2023-01-20T21:39:59.450Z,1.50
2023-01-20T21:42:45.643Z,1.50
2023-01-20T21:45:31.048Z,1.50
2023-01-20T21:48:35.194Z,1.50
2023-01-20T21:51:39.209Z,1.40
2023-01-20T21:54:32.520Z,1.40
2023-01-20T21:57:17.842Z,1.40
2023-01-20T22:00:06.378Z,1.40
2023-01-20T22:02:58.426Z,1.40
2023-01-20T22:05:43.876Z,1.40
2023-01-20T22:08:29.304Z,1.40
2023-01-20T22:11:14.792Z,1.40
2023-01-20T22:14:00.284Z,1.30
2023-01-20T22:16:45.718Z,1.30
2023-01-20T22:19:31.659Z,1.30
2023-01-20T22:22:17.083Z,1.30
2023-01-20T22:25:02.733Z,1.20
2023-01-20T22:27:48.461Z,1.20
2023-01-20T22:30:33.955Z,1.20
2023-01-20T22:33:19.371Z,1.20
2023-01-20T22:36:06.131Z,1.20
2023-01-20T22:38:52.949Z,1.20
2023-01-20T22:41:38.430Z,1.40
2023-01-20T22:44:24.444Z,1.30
2023-01-20T22:47:10.851Z,1.30
2023-01-20T22:49:56.853Z,1.20
2023-01-20T22:52:42.258Z,1.20
2023-01-20T22:55:27.763Z,1.20
2023-01-20T22:58:13.261Z,1.10
2023-01-20T23:00:59.361Z,1.00
2023-01-20T23:03:45.498Z,0.90
2023-01-20T23:06:33.604Z,0.90
2023-01-20T23:09:19.113Z,0.80
2023-01-20T23:12:04.738Z,0.70
2023-01-20T23:14:59.003Z,0.70
2023-01-20T23:17:44.722Z,0.60
2023-01-20T23:20:30.391Z,0.50
2023-01-20T23:23:16.586Z,0.50
2023-01-20T23:26:04.983Z,0.40
2023-01-20T23:28:50.857Z,0.30
2023-01-20T23:31:36.231Z,0.30
2023-01-20T23:34:21.809Z,0.20
2023-01-20T23:37:07.308Z,0.20
2023-01-20T23:39:52.959Z,0.10
2023-01-20T23:42:38.261Z,0.10
2023-01-20T23:45:23.683Z,0.00
2023-01-20T23:48:09.158Z,0.00
2023-01-20T23:50:56.388Z,0.00
2023-01-20T23:53:42.072Z,0.00
2023-01-20T23:56:27.675Z,-0.10
2023-01-20T23:59:13.240Z,-0.10
